Time;durP1;ratioP1;P1;durP2;ratioP2;P2;SDS_P1;SDS_P2;PMS_P1;PMS_P2;Temp;Humidity;BMP_temperature;BMP_pressure;BME280_temperature;BME280_humidity;BME280_pressure;Samples;Min_cycle;Max_cycle;Signal;HPM_P1;HPM_P2
2022/01/03 00:01:24;;;;;;;11.60;8.98;;;7.00;99.90;;;;;;4960199;28;20161;-66
2022/01/03 00:03:49;;;;;;;13.68;9.40;;;6.80;99.90;;;;;;4963560;28;20039;-66
2022/01/03 00:07:05;;;;;;;13.75;9.38;;;6.70;99.90;;;;;;4968261;28;20084;-66
2022/01/03 00:09:32;;;;;;;12.88;9.77;;;6.70;99.90;;;;;;4961479;28;20094;-65
2022/01/03 00:11:58;;;;;;;19.58;11.60;;;6.60;99.90;;;;;;4959601;28;20501;-65
2022/01/03 00:14:27;;;;;;;20.17;11.65;;;6.50;99.90;;;;;;4963439;28;20031;-65
2022/01/03 00:16:52;;;;;;;18.25;11.30;;;6.50;99.90;;;;;;4963228;28;20061;-65
2022/01/03 00:19:18;;;;;;;22.27;12.18;;;6.40;99.90;;;;;;4967392;28;20492;-66
2022/01/03 00:21:45;;;;;;;22.55;11.95;;;6.30;99.90;;;;;;4964809;28;20035;-66
2022/01/03 00:24:12;;;;;;;18.50;11.50;;;6.30;99.90;;;;;;4964708;28;20046;-66
2022/01/03 00:26:40;;;;;;;26.35;12.07;;;6.30;99.90;;;;;;4969443;28;20043;-65
2022/01/03 00:29:17;;;;;;;53.65;12.02;;;6.20;99.90;;;;;;4965404;28;20082;-65
2022/01/03 00:31:43;;;;;;;58.97;12.10;;;6.20;99.90;;;;;;4966302;28;20551;-66
2022/01/03 00:34:11;;;;;;;26.50;12.52;;;5.60;99.90;;;;;;4964711;28;20046;-64
2022/01/03 00:36:37;;;;;;;40.55;13.25;;;5.40;99.90;;;;;;4962800;28;20039;-65
2022/01/03 00:39:07;;;;;;;28.20;12.30;;;5.50;99.90;;;;;;4956422;28;20042;-65
2022/01/03 00:41:33;;;;;;;36.42;12.80;;;5.60;99.90;;;;;;4960176;28;20057;-65
2022/01/03 00:43:59;;;;;;;24.05;13.32;;;5.70;99.90;;;;;;4963484;28;20143;-65
2022/01/03 00:46:25;;;;;;;20.58;12.85;;;5.80;99.90;;;;;;4960274;28;20118;-64
2022/01/03 00:48:53;;;;;;;24.65;12.05;;;5.90;99.90;;;;;;4960991;28;20039;-65
2022/01/03 00:51:19;;;;;;;22.55;13.43;;;6.00;99.90;;;;;;4964247;28;20051;-65
2022/01/03 00:53:49;;;;;;;75.95;12.65;;;6.00;99.90;;;;;;4964036;28;20019;-64
2022/01/03 00:56:23;;;;;;;34.88;13.20;;;6.10;99.90;;;;;;4959382;28;20038;-65
2022/01/03 00:59:04;;;;;;;49.30;11.98;;;6.00;99.90;;;;;;4964411;28;20027;-65
2022/01/03 01:01:31;;;;;;;32.28;11.93;;;6.00;99.90;;;;;;4962935;28;20262;-65
2022/01/03 01:03:59;;;;;;;53.03;14.48;;;6.00;99.90;;;;;;4964719;28;20121;-65
2022/01/03 01:06:25;;;;;;;41.25;14.20;;;6.00;99.90;;;;;;4965356;28;20030;-65
2022/01/03 01:08:55;;;;;;;36.85;13.20;;;6.00;99.90;;;;;;4964863;28;20030;-65
2022/01/03 01:11:28;;;;;;;29.33;13.43;;;5.90;99.90;;;;;;4967666;28;20055;-65
2022/01/03 01:13:55;;;;;;;26.45;15.05;;;5.90;99.90;;;;;;4962780;28;20019;-66
2022/01/03 01:16:22;;;;;;;31.38;13.45;;;6.00;99.90;;;;;;4961939;28;20441;-65
2022/01/03 01:18:49;;;;;;;21.13;9.52;;;6.10;99.90;;;;;;4965054;28;20045;-65
2022/01/03 01:21:15;;;;;;;25.50;10.43;;;6.00;99.90;;;;;;4964869;28;20085;-65
2022/01/03 01:23:42;;;;;;;16.42;10.13;;;5.90;99.90;;;;;;4965760;28;20054;-66
2022/01/03 01:28:52;;;;;;;16.70;10.15;;;5.70;99.90;;;;;;4966226;28;20113;-65
2022/01/03 01:31:24;;;;;;;26.23;9.52;;;5.60;99.90;;;;;;4962722;28;20489;-65
2022/01/03 01:33:55;;;;;;;31.65;9.90;;;5.60;99.90;;;;;;4966072;28;20081;-64
2022/01/03 01:36:27;;;;;;;45.27;9.60;;;5.50;99.90;;;;;;4963290;28;20047;-65
2022/01/03 01:38:58;;;;;;;28.25;9.13;;;5.20;99.90;;;;;;4967507;28;20082;-65
2022/01/03 01:41:27;;;;;;;19.77;9.98;;;5.00;99.90;;;;;;4964525;28;20080;-66
2022/01/03 01:43:58;;;;;;;35.45;9.63;;;4.90;99.90;;;;;;4965575;28;20034;-66
2022/01/03 01:46:25;;;;;;;15.25;9.80;;;5.00;99.90;;;;;;4963375;28;20073;-66
2022/01/03 01:48:51;;;;;;;49.20;10.68;;;5.00;99.90;;;;;;4960868;28;20063;-66
2022/01/03 01:51:22;;;;;;;53.90;10.52;;;4.90;99.90;;;;;;4965893;28;20062;-66
2022/01/03 01:53:56;;;;;;;47.70;10.68;;;4.70;99.90;;;;;;4966163;28;20026;-66
2022/01/03 01:56:23;;;;;;;16.85;11.32;;;4.80;99.90;;;;;;4966912;28;20418;-66
2022/01/03 01:59:10;;;;;;;18.10;11.13;;;4.80;99.90;;;;;;4964106;28;20081;-66
2022/01/03 02:01:52;;;;;;;21.02;11.48;;;4.90;99.90;;;;;;4965637;28;20030;-66
2022/01/03 02:04:40;;;;;;;23.58;10.32;;;5.00;99.90;;;;;;4964641;28;20086;-66
2022/01/03 02:07:27;;;;;;;18.00;11.32;;;5.10;99.90;;;;;;4965068;28;20026;-67
2022/01/03 02:10:08;;;;;;;22.35;11.57;;;5.30;99.90;;;;;;4968093;28;20654;-66
2022/01/03 02:12:52;;;;;;;30.40;11.48;;;5.40;99.90;;;;;;4967162;28;20133;-66
2022/01/03 02:15:19;;;;;;;24.35;11.75;;;5.40;99.90;;;;;;4964450;28;20654;-65
2022/01/03 02:17:48;;;;;;;23.30;11.95;;;5.40;99.90;;;;;;4964805;28;20035;-67
2022/01/03 02:20:21;;;;;;;18.95;12.30;;;5.50;99.90;;;;;;4964053;28;20035;-66
2022/01/03 02:22:47;;;;;;;36.53;13.07;;;5.60;99.90;;;;;;4961417;28;20027;-66
2022/01/03 02:25:15;;;;;;;19.33;12.35;;;5.70;99.90;;;;;;4961726;28;20026;-66
2022/01/03 02:27:42;;;;;;;17.30;12.10;;;5.90;99.90;;;;;;4966566;28;20039;-67
2022/01/03 02:30:12;;;;;;;25.95;12.60;;;6.00;99.90;;;;;;4966488;28;20045;-66
2022/01/03 02:32:38;;;;;;;25.90;12.35;;;6.10;99.90;;;;;;4969415;28;20097;-66
2022/01/03 02:35:04;;;;;;;26.90;12.52;;;6.20;99.90;;;;;;4965190;28;20590;-66
2022/01/03 02:37:30;;;;;;;33.08;12.43;;;6.20;99.90;;;;;;4964368;28;20521;-66
2022/01/03 02:39:56;;;;;;;19.63;11.73;;;6.10;99.90;;;;;;4967013;28;20026;-66
2022/01/03 02:42:25;;;;;;;13.48;11.45;;;6.00;99.90;;;;;;4965344;28;20035;-67
2022/01/03 02:45:06;;;;;;;12.93;10.93;;;6.10;99.90;;;;;;4963487;28;20140;-66
2022/01/03 02:47:32;;;;;;;13.43;10.40;;;6.10;99.90;;;;;;4964601;28;20037;-66
2022/01/03 02:49:58;;;;;;;14.07;10.48;;;6.00;99.90;;;;;;4966228;28;20051;-66
2022/01/03 02:52:24;;;;;;;12.40;8.57;;;6.00;99.90;;;;;;4964100;28;20039;-66
2022/01/03 02:54:50;;;;;;;4.53;3.30;;;6.00;99.90;;;;;;4965872;28;20482;-66
2022/01/03 02:57:22;;;;;;;3.97;1.60;;;6.30;99.90;;;;;;4967180;28;20382;-66
2022/01/03 02:59:54;;;;;;;;;;;7.40;99.90;;;;;;4967230;28;20043;-66
2022/01/03 03:02:22;;;;;;;1.98;0.95;;;8.50;99.90;;;;;;4957352;28;20830;-66
2022/01/03 03:04:56;;;;;;;1.75;0.82;;;9.40;99.10;;;;;;4961627;28;20157;-66
2022/01/03 03:07:23;;;;;;;1.75;0.82;;;9.90;97.00;;;;;;4961429;28;20086;-66
2022/01/03 03:09:49;;;;;;;5.05;1.10;;;10.50;96.30;;;;;;4962458;28;20126;-66
2022/01/03 03:12:15;;;;;;;2.20;1.10;;;10.80;94.90;;;;;;4961736;28;20795;-66
2022/01/03 03:14:41;;;;;;;3.13;0.70;;;11.10;94.40;;;;;;4967183;28;20043;-66
2022/01/03 03:17:07;;;;;;;3.15;0.80;;;11.30;93.40;;;;;;4967063;28;20026;-65
2022/01/03 03:19:48;;;;;;;1.20;0.75;;;11.60;92.60;;;;;;4968096;28;21165;-65
2022/01/03 03:22:13;;;;;;;4.55;1.00;;;11.70;92.90;;;;;;4966848;28;20054;-65
2022/01/03 03:24:39;;;;;;;9.75;1.00;;;11.80;92.30;;;;;;4962880;28;20038;-65
2022/01/03 03:27:08;;;;;;;1.48;0.95;;;11.90;92.10;;;;;;4967998;28;20445;-66
2022/01/03 03:29:34;;;;;;;1.40;0.70;;;12.00;92.00;;;;;;4969004;28;20166;-65
2022/01/03 03:32:00;;;;;;;2.03;0.85;;;12.00;91.90;;;;;;4968480;28;20145;-65
2022/01/03 03:34:26;;;;;;;2.33;0.70;;;12.10;91.60;;;;;;4964729;28;20207;-65
2022/01/03 03:36:51;;;;;;;2.75;0.85;;;12.10;91.80;;;;;;4968312;28;20058;-65
2022/01/03 03:39:17;;;;;;;3.08;0.77;;;12.10;91.80;;;;;;4963822;28;20061;-65
2022/01/03 03:41:43;;;;;;;1.95;0.90;;;12.20;91.60;;;;;;4964014;28;20822;-65
2022/01/03 03:44:09;;;;;;;1.15;0.73;;;12.20;91.20;;;;;;4966507;28;20033;-65
2022/01/03 03:46:35;;;;;;;1.00;0.88;;;12.20;90.90;;;;;;4963512;28;20030;-65
2022/01/03 03:49:00;;;;;;;3.22;0.80;;;12.30;91.00;;;;;;4968107;28;20093;-65
2022/01/03 03:51:27;;;;;;;1.35;0.70;;;12.20;91.30;;;;;;4966623;28;20059;-65
2022/01/03 03:53:53;;;;;;;1.50;0.70;;;12.20;91.20;;;;;;4964496;28;20062;-65
2022/01/03 03:56:19;;;;;;;3.00;1.48;;;12.20;90.80;;;;;;4954080;28;20786;-65
2022/01/03 03:58:44;;;;;;;1.63;0.90;;;12.20;90.70;;;;;;4965231;28;20162;-66
2022/01/03 04:01:10;;;;;;;1.83;1.20;;;12.30;90.50;;;;;;4965700;28;20121;-65
2022/01/03 04:03:36;;;;;;;1.33;0.90;;;12.50;90.20;;;;;;4964917;28;20110;-65
2022/01/03 04:06:01;;;;;;;4.13;1.25;;;12.60;89.90;;;;;;4959761;28;20042;-65
2022/01/03 04:08:27;;;;;;;1.90;1.00;;;12.70;90.00;;;;;;4963002;28;20054;-65
2022/01/03 04:10:53;;;;;;;1.73;0.85;;;12.80;89.60;;;;;;4967189;28;20043;-65
2022/01/03 04:13:19;;;;;;;3.38;1.58;;;12.90;89.10;;;;;;4962205;28;20023;-65
2022/01/03 04:15:45;;;;;;;1.15;0.80;;;12.90;88.40;;;;;;4962438;28;20050;-64
2022/01/03 04:18:11;;;;;;;3.53;1.10;;;12.90;88.90;;;;;;4955197;28;20035;-65
2022/01/03 04:20:36;;;;;;;1.15;0.98;;;12.90;89.30;;;;;;4954186;28;20800;-63
2022/01/03 04:23:02;;;;;;;1.60;1.20;;;12.90;89.20;;;;;;4959895;28;20114;-65
2022/01/03 04:25:31;;;;;;;2.53;1.42;;;12.90;88.90;;;;;;4960673;28;20783;-66
2022/01/03 04:27:56;;;;;;;2.08;0.90;;;12.80;88.90;;;;;;4963909;28;20042;-66
2022/01/03 04:30:22;;;;;;;2.70;1.15;;;12.90;88.60;;;;;;4964540;28;20046;-65
2022/01/03 04:32:47;;;;;;;2.25;1.00;;;12.90;88.30;;;;;;4975629;28;20104;-65
2022/01/03 04:35:13;;;;;;;1.88;1.20;;;12.90;88.00;;;;;;4960597;28;20485;-66
2022/01/03 04:37:39;;;;;;;2.05;1.08;;;12.90;87.50;;;;;;4965918;28;20445;-65
2022/01/03 04:40:05;;;;;;;3.97;0.93;;;12.90;87.70;;;;;;4961151;28;20035;-66
2022/01/03 04:42:31;;;;;;;2.78;0.93;;;12.90;86.20;;;;;;4955139;28;20038;-65
2022/01/03 04:44:57;;;;;;;3.72;1.17;;;13.00;87.30;;;;;;4961804;28;20034;-66
2022/01/03 04:47:22;;;;;;;1.27;0.90;;;13.00;86.20;;;;;;4958539;28;20147;-66
2022/01/03 04:49:48;;;;;;;2.83;1.38;;;13.00;85.70;;;;;;4960700;28;20097;-66
2022/01/03 04:52:14;;;;;;;2.42;1.27;;;13.10;85.20;;;;;;4958296;28;20042;-66
2022/01/03 04:54:40;;;;;;;3.50;1.00;;;13.20;85.20;;;;;;4962099;28;20030;-66
2022/01/03 04:57:06;;;;;;;3.92;0.93;;;13.10;85.10;;;;;;4961437;28;20049;-65
2022/01/03 04:59:31;;;;;;;3.33;1.02;;;13.10;84.40;;;;;;4957284;28;20725;-65
2022/01/03 05:01:57;;;;;;;4.20;1.05;;;13.20;84.30;;;;;;4960817;28;20108;-65
2022/01/03 05:04:23;;;;;;;5.07;1.35;;;13.20;84.50;;;;;;4964712;28;20035;-65
2022/01/03 05:06:48;;;;;;;3.33;1.13;;;13.20;83.60;;;;;;4962056;28;20039;-65
2022/01/03 05:09:14;;;;;;;2.15;1.23;;;13.20;84.10;;;;;;4965429;28;20042;-65
2022/01/03 05:11:40;;;;;;;2.85;1.10;;;13.20;84.80;;;;;;4957177;28;20041;-65
2022/01/03 05:14:05;;;;;;;3.55;1.23;;;13.10;84.50;;;;;;4964908;28;20504;-65
2022/01/03 05:16:31;;;;;;;1.08;1.00;;;13.10;83.70;;;;;;4957513;28;20066;-65
2022/01/03 05:18:57;;;;;;;2.33;1.23;;;13.10;84.30;;;;;;4959042;28;20035;-65
2022/01/03 05:21:24;;;;;;;5.38;1.27;;;13.20;83.60;;;;;;4961034;28;20042;-65
2022/01/03 05:23:51;;;;;;;2.17;1.05;;;13.10;82.90;;;;;;4961992;28;20085;-65
2022/01/03 05:26:17;;;;;;;1.95;0.93;;;13.20;83.70;;;;;;4962082;28;20035;-65
2022/01/03 05:28:43;;;;;;;3.08;1.30;;;13.20;82.60;;;;;;4961850;28;20101;-65
2022/01/03 05:31:09;;;;;;;2.10;1.00;;;13.20;81.90;;;;;;4963518;28;20118;-65
2022/01/03 05:33:34;;;;;;;2.80;1.02;;;13.20;81.70;;;;;;4959791;28;20417;-64
2022/01/03 05:36:00;;;;;;;2.63;1.05;;;13.20;80.80;;;;;;4965159;28;20797;-65
2022/01/03 05:38:26;;;;;;;2.00;1.08;;;13.30;80.70;;;;;;4963675;28;20577;-65
2022/01/03 05:40:51;;;;;;;3.85;1.23;;;13.30;80.90;;;;;;4962989;28;20469;-65
2022/01/03 05:43:17;;;;;;;2.20;1.13;;;13.30;81.00;;;;;;4958328;28;20031;-65
2022/01/03 05:45:43;;;;;;;2.88;1.10;;;13.20;81.40;;;;;;4964963;28;20031;-65
2022/01/03 05:48:08;;;;;;;2.10;1.00;;;13.20;80.60;;;;;;4956486;28;20093;-65
2022/01/03 05:50:34;;;;;;;1.85;0.93;;;13.20;81.60;;;;;;4966171;28;20145;-65
2022/01/03 05:52:59;;;;;;;2.05;0.90;;;13.30;80.40;;;;;;4961817;28;20094;-65
2022/01/03 05:55:25;;;;;;;2.17;1.17;;;13.30;81.60;;;;;;4960288;28;20026;-65
2022/01/03 05:57:51;;;;;;;3.00;1.20;;;13.20;81.30;;;;;;4963442;28;20030;-65
2022/01/03 06:00:18;;;;;;;3.00;1.10;;;13.30;81.40;;;;;;4963587;28;20583;-65
2022/01/03 06:02:44;;;;;;;1.77;1.13;;;13.30;81.90;;;;;;4957657;28;20027;-65
2022/01/03 06:05:20;;;;;;;1.90;1.15;;;13.20;82.00;;;;;;4959405;28;20456;-65
2022/01/03 06:07:46;;;;;;;2.78;1.13;;;13.20;82.20;;;;;;4968685;28;20046;-65
2022/01/03 06:10:16;;;;;;;3.13;1.10;;;13.10;81.80;;;;;;4960479;28;20413;-65
2022/01/03 06:12:42;;;;;;;3.00;1.30;;;13.20;80.90;;;;;;4960830;28;21060;-65
2022/01/03 06:15:08;;;;;;;2.63;1.00;;;13.20;81.30;;;;;;4958001;28;20930;-65
2022/01/03 06:17:34;;;;;;;1.42;0.95;;;13.20;81.00;;;;;;4958518;28;20035;-65
2022/01/03 06:19:59;;;;;;;2.20;1.23;;;13.20;80.50;;;;;;4956464;28;20625;-65
2022/01/03 06:22:25;;;;;;;1.75;1.25;;;13.10;80.60;;;;;;4957977;28;20038;-65
2022/01/03 06:24:51;;;;;;;4.15;1.42;;;13.10;81.50;;;;;;4959485;28;20038;-65
2022/01/03 06:27:16;;;;;;;2.40;1.02;;;13.00;80.30;;;;;;4953436;28;20035;-65
2022/01/03 06:29:42;;;;;;;7.93;2.15;;;12.90;81.10;;;;;;4961921;28;20788;-64
2022/01/03 06:32:08;;;;;;;5.50;1.80;;;12.90;80.70;;;;;;4958233;28;20035;-65
2022/01/03 06:34:33;;;;;;;1.92;1.25;;;12.80;81.80;;;;;;4955371;28;20063;-67
2022/01/03 06:36:59;;;;;;;1.98;1.65;;;12.80;81.70;;;;;;4952494;28;20568;-67
2022/01/03 06:39:25;;;;;;;2.55;1.52;;;12.70;82.20;;;;;;4957168;28;20066;-67
2022/01/03 06:41:50;;;;;;;3.10;1.50;;;12.60;82.10;;;;;;4957740;28;20032;-69
2022/01/03 06:44:16;;;;;;;2.70;1.25;;;12.60;83.80;;;;;;4961948;28;20070;-66
2022/01/03 06:46:42;;;;;;;1.98;1.45;;;12.60;83.40;;;;;;4970011;28;20559;-67
2022/01/03 06:49:07;;;;;;;3.35;1.95;;;12.60;83.30;;;;;;4967744;28;20488;-68
2022/01/03 06:51:34;;;;;;;2.53;1.73;;;12.50;82.90;;;;;;4969042;28;20066;-67
2022/01/03 06:54:10;;;;;;;2.67;1.83;;;12.30;84.70;;;;;;4966416;28;20106;-68
2022/01/03 06:56:36;;;;;;;2.40;1.77;;;12.20;85.30;;;;;;4965325;28;20082;-69
2022/01/03 06:59:02;;;;;;;3.60;2.00;;;12.10;85.60;;;;;;4970179;28;21299;-68
2022/01/03 07:01:28;;;;;;;4.55;2.22;;;11.90;86.30;;;;;;4966354;28;20137;-69
2022/01/03 07:03:54;;;;;;;3.85;2.10;;;11.80;86.40;;;;;;4968365;28;20062;-69
2022/01/03 07:06:20;;;;;;;3.17;2.33;;;11.80;87.60;;;;;;4969229;28;20118;-68
2022/01/03 07:08:45;;;;;;;3.05;2.20;;;11.80;86.90;;;;;;4966970;28;20038;-69
2022/01/03 07:11:11;;;;;;;3.55;2.47;;;11.70;87.90;;;;;;4966198;28;20055;-69
2022/01/03 07:13:47;;;;;;;4.63;2.05;;;11.70;86.90;;;;;;4969588;28;20030;-69
2022/01/03 07:18:56;;;;;;;4.80;2.10;;;11.80;87.00;;;;;;4966492;28;20065;-69
2022/01/03 07:21:31;;;;;;;4.90;2.35;;;11.80;86.20;;;;;;4965137;28;20030;-69
2022/01/03 07:23:57;;;;;;;4.20;2.00;;;11.90;86.80;;;;;;4969603;28;20666;-70
2022/01/03 07:26:27;;;;;;;3.28;1.70;;;11.90;86.80;;;;;;4966285;28;20834;-69
2022/01/03 07:28:54;;;;;;;2.67;1.60;;;11.90;86.30;;;;;;4967799;28;20019;-70
2022/01/03 07:31:20;;;;;;;3.20;1.55;;;12.00;85.80;;;;;;4965209;28;20035;-69
2022/01/03 07:33:46;;;;;;;4.30;1.63;;;12.00;85.50;;;;;;4967290;28;20572;-69
2022/01/03 07:36:12;;;;;;;1.75;1.58;;;12.00;86.20;;;;;;4967583;28;21275;-69
2022/01/03 07:38:38;;;;;;;1.88;1.60;;;12.00;86.00;;;;;;4968766;28;20042;-69
2022/01/03 07:41:04;;;;;;;2.05;1.48;;;12.00;85.90;;;;;;4969304;28;22064;-69
2022/01/03 07:43:31;;;;;;;2.60;1.70;;;12.00;87.00;;;;;;4965633;28;20031;-69
2022/01/03 07:45:56;;;;;;;2.15;1.42;;;12.00;86.40;;;;;;4965194;28;20034;-69
2022/01/03 07:48:22;;;;;;;3.15;1.50;;;12.00;87.20;;;;;;4964857;28;20085;-69
2022/01/03 07:50:49;;;;;;;1.65;1.35;;;12.00;87.10;;;;;;4981328;28;20145;-69
2022/01/03 07:53:17;;;;;;;5.00;1.30;;;12.00;86.50;;;;;;4966891;28;20045;-69
2022/01/03 07:55:43;;;;;;;1.77;1.33;;;12.00;86.50;;;;;;4969656;28;20031;-69
2022/01/03 07:58:08;;;;;;;3.00;1.30;;;12.10;85.50;;;;;;4965700;28;20405;-69
2022/01/03 08:00:34;;;;;;;2.00;1.10;;;12.20;86.00;;;;;;4965462;28;20561;-69
2022/01/03 08:03:00;;;;;;;1.63;1.10;;;12.20;86.50;;;;;;4967743;28;20031;-69
2022/01/03 08:05:26;;;;;;;3.30;1.20;;;12.20;86.70;;;;;;4967657;28;20164;-69
2022/01/03 08:07:51;;;;;;;2.80;1.50;;;12.20;87.10;;;;;;4963595;28;20046;-69
2022/01/03 08:10:17;;;;;;;2.28;1.40;;;12.10;87.20;;;;;;4965724;28;20030;-69
2022/01/03 08:12:44;;;;;;;3.15;1.13;;;12.10;87.10;;;;;;4966581;28;20389;-69
2022/01/03 08:15:10;;;;;;;3.55;1.33;;;12.20;86.80;;;;;;4963612;28;20649;-69
2022/01/03 08:17:36;;;;;;;2.38;1.02;;;12.10;87.40;;;;;;4967489;28;20038;-69
2022/01/03 08:20:04;;;;;;;2.38;0.90;;;12.10;87.70;;;;;;4961092;28;20035;-69
2022/01/03 08:22:29;;;;;;;2.55;1.00;;;12.10;87.10;;;;;;4967702;28;20023;-69
2022/01/03 08:24:55;;;;;;;1.67;0.82;;;12.10;87.80;;;;;;4965689;28;20046;-69
2022/01/03 08:27:21;;;;;;;3.40;1.40;;;12.10;87.90;;;;;;4964298;28;20045;-69
2022/01/03 08:29:46;;;;;;;1.45;0.90;;;12.10;87.70;;;;;;4966167;28;20145;-68
2022/01/03 08:32:12;;;;;;;2.65;1.17;;;12.10;88.20;;;;;;4961152;28;20043;-69
2022/01/03 08:34:38;;;;;;;1.98;1.58;;;12.10;88.00;;;;;;4955004;28;20030;-68
2022/01/03 08:37:04;;;;;;;2.72;0.80;;;12.00;88.30;;;;;;4963653;28;20030;-69
2022/01/03 08:39:29;;;;;;;2.85;0.98;;;12.00;88.60;;;;;;4964455;28;20045;-66
2022/01/03 08:41:55;;;;;;;1.70;0.88;;;12.00;88.60;;;;;;4962642;28;20045;-69
2022/01/03 08:44:21;;;;;;;1.98;1.05;;;11.90;88.50;;;;;;4963279;28;20045;-69
2022/01/03 08:46:48;;;;;;;1.50;1.15;;;11.90;89.60;;;;;;4962974;28;20031;-68
2022/01/03 08:49:14;;;;;;;1.40;0.80;;;11.90;89.70;;;;;;4958700;28;20026;-68
2022/01/03 08:51:39;;;;;;;3.22;1.20;;;11.90;89.70;;;;;;4958211;28;20066;-69
2022/01/03 08:54:05;;;;;;;0.82;0.75;;;11.80;90.00;;;;;;4967738;28;20031;-68
2022/01/03 08:56:31;;;;;;;1.42;0.60;;;11.80;89.10;;;;;;4965147;28;20031;-69
2022/01/03 08:58:56;;;;;;;1.77;0.80;;;11.80;88.90;;;;;;4964056;28;20414;-69
2022/01/03 09:01:22;;;;;;;1.60;0.80;;;11.70;87.70;;;;;;4958691;28;20058;-69
2022/01/03 09:03:50;;;;;;;0.75;0.40;;;11.80;87.40;;;;;;4962191;28;20026;-69
2022/01/03 09:06:20;;;;;;;1.67;0.60;;;11.70;86.50;;;;;;4963167;28;20032;-69
2022/01/03 09:08:46;;;;;;;1.85;0.40;;;11.80;85.60;;;;;;4962611;28;20404;-69
2022/01/03 09:11:13;;;;;;;1.15;0.55;;;11.70;84.30;;;;;;4964638;28;20498;-69
2022/01/03 09:13:38;;;;;;;2.33;0.70;;;11.80;84.70;;;;;;4948692;28;20104;-69
2022/01/03 09:16:06;;;;;;;1.02;0.43;;;11.80;86.00;;;;;;4966640;28;20587;-69
2022/01/03 09:18:32;;;;;;;1.73;0.60;;;11.70;84.60;;;;;;4973912;28;20061;-69
2022/01/03 09:20:58;;;;;;;0.52;0.20;;;11.70;83.30;;;;;;4963834;28;20752;-69
2022/01/03 09:23:28;;;;;;;1.15;0.32;;;11.80;83.60;;;;;;4972480;28;20141;-69
2022/01/03 09:28:56;;;;;;;0.52;0.22;;;11.80;83.50;;;;;;4969504;28;20135;-69
2022/01/03 09:31:34;;;;;;;0.95;0.32;;;11.80;83.30;;;;;;4974370;28;20142;-69
2022/01/03 09:34:03;;;;;;;0.45;0.20;;;11.80;83.60;;;;;;4969216;28;20050;-68
2022/01/03 09:36:30;;;;;;;1.23;0.25;;;11.80;83.10;;;;;;4973621;28;20141;-69
2022/01/03 09:38:56;;;;;;;0.85;0.20;;;11.90;83.00;;;;;;4975766;28;20058;-69
2022/01/03 09:41:24;;;;;;;1.50;0.20;;;11.90;82.60;;;;;;4974982;28;20416;-69
2022/01/03 09:43:52;;;;;;;1.65;0.52;;;12.00;81.80;;;;;;4977082;28;20452;-69
2022/01/03 09:46:25;;;;;;;1.17;0.30;;;12.00;82.00;;;;;;4976376;28;20491;-69
2022/01/03 09:48:52;;;;;;;3.20;0.32;;;12.00;82.30;;;;;;4980959;28;20538;-69
2022/01/03 09:51:27;;;;;;;1.10;0.30;;;12.10;83.50;;;;;;4975604;28;20677;-69
2022/01/03 09:53:55;;;;;;;0.55;0.22;;;12.10;83.50;;;;;;4973963;28;20049;-70
2022/01/03 09:56:23;;;;;;;0.52;0.25;;;12.10;83.60;;;;;;4979298;28;20105;-69
2022/01/03 09:58:49;;;;;;;0.93;0.20;;;12.10;83.40;;;;;;4974202;28;20035;-70
2022/01/03 10:01:15;;;;;;;0.45;0.13;;;12.20;82.60;;;;;;4969586;28;20031;-69
2022/01/03 10:03:47;;;;;;;0.65;0.10;;;12.20;81.70;;;;;;4973845;28;20113;-70
2022/01/03 10:06:17;;;;;;;0.15;0.10;;;12.20;81.20;;;;;;4978617;28;20043;-69
2022/01/03 10:08:43;;;;;;;0.10;0.10;;;12.20;82.10;;;;;;4974712;28;20061;-69
2022/01/03 10:11:09;;;;;;;1.58;0.32;;;12.10;83.50;;;;;;4966268;28;20065;-69
2022/01/03 10:13:35;;;;;;;0.98;0.40;;;12.10;83.20;;;;;;4974519;28;20124;-69
2022/01/03 10:16:01;;;;;;;2.67;0.50;;;12.00;83.60;;;;;;4973031;28;21054;-68
2022/01/03 10:18:27;;;;;;;0.32;0.20;;;12.00;83.40;;;;;;4975299;28;20026;-69
2022/01/03 10:20:56;;;;;;;1.40;0.20;;;11.90;83.40;;;;;;4980238;28;20033;-69
2022/01/03 10:23:22;;;;;;;0.73;0.30;;;11.90;84.40;;;;;;4980374;28;20045;-70
2022/01/03 10:25:47;;;;;;;2.45;0.30;;;11.90;82.60;;;;;;4980595;28;20027;-69
2022/01/03 10:28:25;;;;;;;0.20;0.20;;;12.00;82.70;;;;;;4988282;28;20077;-70
2022/01/03 10:30:52;;;;;;;0.85;0.40;;;12.00;82.20;;;;;;4981828;28;20174;-70
2022/01/03 10:33:22;;;;;;;1.45;0.35;;;12.00;82.60;;;;;;4983964;28;20045;-70
2022/01/03 10:35:55;;;;;;;0.30;0.20;;;12.00;83.40;;;;;;4982289;28;20032;-70
2022/01/03 10:38:40;;;;;;;1.13;0.30;;;12.00;82.50;;;;;;4978537;28;20042;-69
2022/01/03 10:41:21;;;;;;;3.40;0.20;;;12.00;82.90;;;;;;4984856;28;20035;-68
2022/01/03 10:43:50;;;;;;;0.95;0.20;;;12.00;82.50;;;;;;4983249;28;20504;-70
2022/01/03 10:46:23;;;;;;;0.93;0.40;;;12.00;82.90;;;;;;4983112;28;20118;-69
2022/01/03 10:48:51;;;;;;;2.65;0.45;;;12.00;82.90;;;;;;4983311;28;20022;-67
2022/01/03 10:51:25;;;;;;;1.33;0.20;;;12.00;82.80;;;;;;4981228;28;20133;-68
2022/01/03 10:53:53;;;;;;;1.92;0.40;;;12.00;82.80;;;;;;4978215;28;20117;-70
2022/01/03 10:56:28;;;;;;;1.45;0.38;;;12.10;83.00;;;;;;4979802;28;20054;-70
2022/01/03 10:58:55;;;;;;;1.65;0.30;;;12.10;83.70;;;;;;4982981;28;20045;-70
2022/01/03 11:01:27;;;;;;;0.52;0.13;;;12.10;82.50;;;;;;4984482;28;20040;-69
2022/01/03 11:03:55;;;;;;;0.43;0.20;;;12.10;82.90;;;;;;4979695;28;20038;-70
2022/01/03 11:11:55;;;;;;;2.08;0.13;;;12.20;82.90;;;;;;4980796;28;20084;-70
2022/01/03 11:14:39;;;;;;;1.63;0.20;;;12.30;82.80;;;;;;4982692;28;20033;-71
2022/01/03 11:17:29;;;;;;;1.55;0.40;;;12.30;82.70;;;;;;4983452;28;20858;-71
2022/01/03 11:19:58;;;;;;;2.10;0.30;;;12.30;82.70;;;;;;4982363;28;20042;-71
2022/01/03 11:22:43;;;;;;;0.30;0.10;;;12.30;81.60;;;;;;4977094;28;20031;-71
2022/01/03 11:25:09;;;;;;;3.22;0.63;;;12.30;82.50;;;;;;4972272;28;20041;-71
2022/01/03 11:27:39;;;;;;;0.52;0.17;;;12.20;81.30;;;;;;4970410;28;20149;-71
2022/01/03 11:30:12;;;;;;;1.63;0.20;;;12.20;82.70;;;;;;4982639;28;20130;-70
2022/01/03 11:32:43;;;;;;;0.30;0.10;;;12.10;83.40;;;;;;4980190;28;20042;-71
2022/01/03 11:35:09;;;;;;;0.60;0.27;;;12.10;84.00;;;;;;4978553;28;20026;-71
2022/01/03 11:37:39;;;;;;;1.30;0.25;;;12.00;83.80;;;;;;5011337;28;20038;-71
2022/01/03 11:40:07;;;;;;;4.28;0.55;;;12.00;84.60;;;;;;4984572;28;20477;-71
2022/01/03 11:42:33;;;;;;;0.57;0.13;;;11.90;85.00;;;;;;4978124;28;20045;-71
2022/01/03 11:44:59;;;;;;;2.30;0.30;;;11.90;84.60;;;;;;4982889;28;20401;-69
2022/01/03 11:47:29;;;;;;;1.55;0.30;;;11.90;85.30;;;;;;4981787;28;20027;-70
2022/01/03 11:49:54;;;;;;;2.42;0.38;;;11.90;85.30;;;;;;4979259;28;20042;-71
2022/01/03 11:52:21;;;;;;;0.20;0.15;;;11.90;85.30;;;;;;4972760;28;20053;-70
2022/01/03 11:54:48;;;;;;;0.68;0.20;;;12.00;85.00;;;;;;4973256;28;20386;-70
2022/01/03 11:57:23;;;;;;;0.38;0.10;;;12.10;85.00;;;;;;4976954;28;20404;-71
2022/01/03 12:05:43;;;;;;;0.50;0.20;;;12.10;86.20;;;;;;4980333;28;20081;-70
2022/01/03 12:08:26;;;;;;;1.17;0.43;;;12.10;85.40;;;;;;4978844;28;20038;-71
2022/01/03 12:10:52;;;;;;;0.95;0.47;;;12.10;86.40;;;;;;4974670;28;20043;-70
2022/01/03 12:13:21;;;;;;;0.90;0.25;;;12.10;86.20;;;;;;4974714;28;21037;-70
2022/01/03 12:16:01;;;;;;;0.60;0.20;;;12.10;86.60;;;;;;4975868;28;20065;-70
2022/01/03 12:18:29;;;;;;;0.93;0.40;;;12.10;86.40;;;;;;4984803;28;20505;-70
2022/01/03 12:20:55;;;;;;;1.05;0.13;;;12.10;87.10;;;;;;4980086;28;20125;-70
2022/01/03 12:23:40;;;;;;;1.80;0.55;;;12.10;87.60;;;;;;4981540;28;20074;-71
2022/01/03 12:26:09;;;;;;;0.73;0.30;;;12.10;86.90;;;;;;4984867;28;20040;-71
2022/01/03 12:29:02;;;;;;;2.20;0.22;;;12.10;87.20;;;;;;4981449;28;20100;-71
2022/01/03 12:32:11;;;;;;;0.65;0.20;;;12.10;86.50;;;;;;4980459;28;20038;-71
2022/01/03 12:34:38;;;;;;;1.02;0.20;;;12.20;85.80;;;;;;4979215;28;20061;-70
2022/01/03 12:37:24;;;;;;;0.45;0.20;;;12.10;86.00;;;;;;4981328;28;20030;-70
2022/01/03 12:40:05;;;;;;;9.30;1.00;;;12.10;86.00;;;;;;4984835;28;20108;-71
2022/01/03 12:42:51;;;;;;;1.25;0.30;;;12.10;87.10;;;;;;4981192;28;20027;-70
2022/01/03 12:45:29;;;;;;;1.40;0.20;;;12.20;87.30;;;;;;4998941;28;20110;-70
2022/01/03 12:48:24;;;;;;;0.35;0.20;;;12.10;87.90;;;;;;4982444;28;20342;-69
2022/01/03 12:50:53;;;;;;;0.40;0.40;;;12.10;87.50;;;;;;4981619;28;20058;-71
2022/01/03 12:53:28;;;;;;;1.98;0.28;;;12.10;87.70;;;;;;4981349;28;21055;-70
2022/01/03 12:56:00;;;;;;;1.15;0.15;;;12.00;88.00;;;;;;4984549;28;20031;-71
2022/01/03 12:58:26;;;;;;;1.55;0.25;;;12.00;88.60;;;;;;4983120;28;20128;-70
2022/01/03 13:00:54;;;;;;;1.63;0.40;;;12.00;88.40;;;;;;4983530;28;20117;-70
2022/01/03 13:04:07;;;;;;;1.33;0.40;;;12.10;87.20;;;;;;4980095;28;20027;-70
2022/01/03 13:06:35;;;;;;;1.38;0.22;;;12.10;87.90;;;;;;4975660;28;20049;-70
2022/01/03 13:09:10;;;;;;;0.93;0.32;;;12.20;88.30;;;;;;4981223;28;20030;-69
2022/01/03 13:11:37;;;;;;;0.93;0.20;;;12.20;88.00;;;;;;4980690;28;20417;-70
2022/01/03 13:14:12;;;;;;;0.93;0.30;;;12.10;87.60;;;;;;5008899;28;20046;-70